createdAt,value
2023-09-24T00:02:15.961Z,98165.20
2023-09-24T00:04:43.398Z,98163.80
2023-09-24T00:07:11.299Z,98164.20
2023-09-24T00:09:38.311Z,98169.00
2023-09-24T00:12:05.521Z,98172.40
2023-09-24T00:14:32.407Z,98174.40
2023-09-24T00:16:59.114Z,98173.00
2023-09-24T00:19:28.620Z,98177.60
2023-09-24T00:21:55.385Z,98180.20
2023-09-24T00:24:22.061Z,98182.00
2023-09-24T00:26:48.905Z,98181.40
2023-09-24T00:29:15.907Z,98183.60
2023-09-24T00:31:42.576Z,98184.80
2023-09-24T00:34:09.512Z,98187.20
2023-09-24T00:36:36.818Z,98188.20
2023-09-24T00:39:04.283Z,98195.40
2023-09-24T00:41:31.177Z,98192.60
2023-09-24T00:44:02.170Z,98191.80
2023-09-24T00:46:29.032Z,98194.00
2023-09-24T00:48:58.940Z,98190.40
2023-09-24T00:51:27.667Z,98192.40
2023-09-24T00:53:55.596Z,98199.80
2023-09-24T00:56:22.908Z,98196.20
2023-09-24T00:58:52.138Z,98197.40
2023-09-24T01:01:25.511Z,98204.80
2023-09-24T01:03:54.493Z,98201.40
2023-09-24T01:06:21.934Z,98194.00
2023-09-24T01:08:50.217Z,98191.60
2023-09-24T01:11:17.205Z,98191.20
2023-09-24T01:13:47.939Z,98195.00
2023-09-24T01:16:15.327Z,98193.20
2023-09-24T01:18:43.835Z,98202.60
2023-09-24T01:21:16.324Z,98201.80
2023-09-24T01:23:47.173Z,98202.20
2023-09-24T01:26:14.815Z,98200.00
2023-09-24T01:28:41.828Z,98203.60
2023-09-24T01:31:09.425Z,98204.40
2023-09-24T01:33:45.371Z,98205.00
2023-09-24T01:36:12.332Z,98201.20
2023-09-24T01:38:43.422Z,98208.00
2023-09-24T01:41:11.806Z,98206.60
2023-09-24T01:43:40.777Z,98209.60
2023-09-24T01:46:08.599Z,98208.60
2023-09-24T01:48:36.765Z,98212.40
2023-09-24T01:51:08.662Z,98215.80
2023-09-24T01:53:39.621Z,98210.80
2023-09-24T01:56:08.149Z,98217.40
2023-09-24T01:58:35.023Z,98219.60
2023-09-24T02:01:04.100Z,98225.20
2023-09-24T02:03:31.629Z,98225.40
2023-09-24T02:05:58.802Z,98221.60
2023-09-24T02:08:25.654Z,98220.80
2023-09-24T02:10:52.535Z,98221.40
2023-09-24T02:13:21.662Z,98225.00
2023-09-24T02:15:49.641Z,98224.00
2023-09-24T02:18:17.661Z,98227.40
2023-09-24T02:20:48.345Z,98232.00
2023-09-24T02:23:18.070Z,98236.80
2023-09-24T02:25:47.991Z,98238.20
2023-09-24T02:28:18.673Z,98241.60
2023-09-24T02:30:47.003Z,98243.40
2023-09-24T02:33:13.923Z,98242.40
2023-09-24T02:35:41.364Z,98241.40
2023-09-24T02:38:10.080Z,98244.40
2023-09-24T02:40:39.918Z,98247.40
2023-09-24T02:43:07.047Z,98242.60
2023-09-24T02:45:34.617Z,98239.40
2023-09-24T02:48:01.712Z,98236.00
2023-09-24T02:50:33.175Z,98237.00
2023-09-24T02:53:02.048Z,98238.20
2023-09-24T02:55:30.747Z,98240.00
2023-09-24T02:57:57.982Z,98236.20
2023-09-24T03:00:45.079Z,98235.40
2023-09-24T03:03:11.903Z,98238.00
2023-09-24T03:05:38.811Z,98236.80
2023-09-24T03:08:06.866Z,98236.40
2023-09-24T03:10:36.242Z,98232.40
2023-09-24T03:13:06.077Z,98232.60
2023-09-24T03:15:34.250Z,98236.20
2023-09-24T03:18:02.548Z,98239.20
2023-09-24T03:20:30.809Z,98240.80
2023-09-24T03:23:05.317Z,98243.40
2023-09-24T03:25:33.184Z,98242.20
2023-09-24T03:28:04.054Z,98247.80
2023-09-24T03:30:31.023Z,98247.20
2023-09-24T03:32:58.565Z,98253.40
2023-09-24T03:35:27.917Z,98249.00
2023-09-24T03:37:56.221Z,98253.80
2023-09-24T03:40:25.837Z,98262.00
2023-09-24T03:42:52.950Z,98265.60
2023-09-24T03:45:22.014Z,98266.20
2023-09-24T03:47:49.074Z,98269.40
2023-09-24T03:50:20.563Z,98270.80
2023-09-24T03:52:48.954Z,98273.20
2023-09-24T03:55:20.350Z,98279.00
2023-09-24T03:57:48.646Z,98281.40
2023-09-24T04:00:23.241Z,98280.00
2023-09-24T04:02:52.616Z,98276.60
2023-09-24T04:05:23.943Z,98280.40
2023-09-24T04:07:53.992Z,98287.80
2023-09-24T04:10:22.825Z,98285.80
2023-09-24T04:12:52.213Z,98293.80
2023-09-24T04:15:29.329Z,98301.00
2023-09-24T04:17:58.082Z,98307.40
2023-09-24T04:20:28.298Z,98315.20
2023-09-24T04:22:54.962Z,98315.60
2023-09-24T04:25:23.177Z,98319.00
2023-09-24T04:27:50.050Z,98315.20
2023-09-24T04:30:18.426Z,98323.00
2023-09-24T04:32:55.310Z,98326.60
2023-09-24T04:35:22.908Z,98331.60
2023-09-24T04:37:50.963Z,98333.80
2023-09-24T04:40:17.992Z,98333.40
2023-09-24T04:42:46.450Z,98336.00
2023-09-24T04:45:14.294Z,98344.60
2023-09-24T04:47:42.353Z,98347.40
2023-09-24T04:50:16.561Z,98347.20
2023-09-24T04:52:46.460Z,98353.20
2023-09-24T04:55:13.661Z,98349.80
2023-09-24T04:57:40.239Z,98357.20
2023-09-24T05:00:08.054Z,98359.60
2023-09-24T05:02:34.798Z,98366.80
2023-09-24T05:05:01.562Z,98371.40
2023-09-24T05:07:28.309Z,98368.60
2023-09-24T05:09:55.146Z,98374.20
2023-09-24T05:12:23.542Z,98380.60
2023-09-24T05:14:50.445Z,98380.20
2023-09-24T05:17:17.564Z,98376.20
2023-09-24T05:19:44.584Z,98379.40
2023-09-24T05:22:11.269Z,98379.20
2023-09-24T05:24:38.061Z,98380.20
2023-09-24T05:27:04.802Z,98382.40
2023-09-24T05:29:31.616Z,98381.00
2023-09-24T05:31:58.593Z,98379.80
2023-09-24T05:34:25.212Z,98381.80
2023-09-24T05:36:52.470Z,98378.20
2023-09-24T05:39:19.707Z,98373.60
2023-09-24T05:41:46.602Z,98379.80
2023-09-24T05:44:14.174Z,98378.60
2023-09-24T05:46:40.872Z,98384.40
2023-09-24T05:49:07.623Z,98379.40
2023-09-24T05:51:34.348Z,98379.80
2023-09-24T05:54:01.160Z,98378.00
2023-09-24T05:56:27.814Z,98378.80
2023-09-24T05:58:57.582Z,98382.80
2023-09-24T06:01:24.537Z,98381.40
2023-09-24T06:03:51.474Z,98386.60
2023-09-24T06:06:18.414Z,98381.80
2023-09-24T06:08:45.474Z,98379.20
2023-09-24T06:11:12.373Z,98378.00
2023-09-24T06:13:40.132Z,98380.60
2023-09-24T06:16:07.730Z,98381.40
2023-09-24T06:18:34.804Z,98384.20
2023-09-24T06:21:04.191Z,98389.60
2023-09-24T06:23:32.081Z,98390.00
2023-09-24T06:25:59.946Z,98396.60
2023-09-24T06:28:27.314Z,98399.60
2023-09-24T06:31:01.463Z,98402.20
2023-09-24T06:33:29.132Z,98413.80
2023-09-24T06:35:56.697Z,98411.20
2023-09-24T06:38:23.908Z,98410.80
2023-09-24T06:40:59.221Z,98420.00
2023-09-24T06:43:28.744Z,98426.80
2023-09-24T06:45:56.317Z,98425.40
2023-09-24T06:48:24.155Z,98429.40
2023-09-24T06:50:51.854Z,98427.60
2023-09-24T06:53:19.481Z,98431.40
2023-09-24T06:55:47.239Z,98439.20
2023-09-24T06:58:14.616Z,98439.60
2023-09-24T07:00:41.296Z,98439.40
2023-09-24T07:03:08.103Z,98445.80
2023-09-24T07:05:37.878Z,98447.60
2023-09-24T07:08:05.396Z,98443.80
2023-09-24T07:10:32.064Z,98446.60
2023-09-24T07:12:58.847Z,98446.00
2023-09-24T07:15:25.607Z,98446.80
2023-09-24T07:17:52.332Z,98446.00
2023-09-24T07:20:21.751Z,98442.40
2023-09-24T07:22:48.749Z,98448.40
2023-09-24T07:25:15.572Z,98450.80
2023-09-24T07:27:42.837Z,98451.20
2023-09-24T07:30:10.672Z,98446.80
2023-09-24T07:32:38.789Z,98447.00
2023-09-24T07:35:06.586Z,98454.20
2023-09-24T07:37:33.429Z,98447.20
2023-09-24T07:40:00.136Z,98449.00
2023-09-24T07:44:53.988Z,98450.60
2023-09-24T07:47:20.976Z,98452.60
2023-09-24T07:49:47.863Z,98458.40
2023-09-24T07:52:15.519Z,98458.00
2023-09-24T07:54:42.378Z,98460.60
2023-09-24T07:57:09.366Z,98460.00
2023-09-24T07:59:36.268Z,98461.60
2023-09-24T08:02:03.420Z,98470.80
2023-09-24T08:04:31.358Z,98479.20
2023-09-24T08:06:58.221Z,98474.60
2023-09-24T08:09:27.442Z,98474.00
2023-09-24T08:11:55.949Z,98473.60
2023-09-24T08:14:23.139Z,98473.60
2023-09-24T08:16:51.277Z,98476.40
2023-09-24T08:19:18.373Z,98477.40
2023-09-24T08:21:44.990Z,98475.60
2023-09-24T08:24:11.765Z,98473.20
2023-09-24T08:26:38.711Z,98470.80
2023-09-24T08:29:07.706Z,98474.40
2023-09-24T08:31:35.589Z,98474.40
2023-09-24T08:34:02.664Z,98475.80
2023-09-24T08:36:30.936Z,98469.40
2023-09-24T08:38:58.391Z,98468.00
2023-09-24T08:41:25.666Z,98470.20
2023-09-24T08:43:56.448Z,98467.60
2023-09-24T08:46:24.468Z,98467.80
2023-09-24T08:48:53.832Z,98469.80
2023-09-24T08:51:21.271Z,98468.60
2023-09-24T08:53:48.601Z,98469.20
2023-09-24T08:56:17.093Z,98470.40
2023-09-24T08:58:44.855Z,98474.00
2023-09-24T09:01:12.801Z,98475.20
2023-09-24T09:03:41.113Z,98476.20
2023-09-24T09:06:08.385Z,98475.40
2023-09-24T09:08:55.070Z,98469.60
2023-09-24T09:11:23.427Z,98473.80
2023-09-24T09:13:50.968Z,98466.80
2023-09-24T09:16:21.763Z,98462.80
2023-09-24T09:19:03.400Z,98465.60
2023-09-24T09:21:31.276Z,98469.20
2023-09-24T09:23:58.208Z,98468.40
2023-09-24T09:26:29.685Z,98469.40
2023-09-24T09:28:56.705Z,98466.40
2023-09-24T09:31:23.426Z,98462.60
2023-09-24T09:33:50.255Z,98457.00
2023-09-24T09:36:35.917Z,98454.60
2023-09-24T09:39:04.446Z,98455.60
2023-09-24T09:41:34.352Z,98453.80
2023-09-24T09:44:08.635Z,98452.60
2023-09-24T09:46:38.511Z,98457.80
2023-09-24T09:49:10.885Z,98452.00
2023-09-24T09:51:49.355Z,98451.60
2023-09-24T09:54:17.550Z,98446.00
2023-09-24T09:56:44.828Z,98446.80
2023-09-24T09:59:11.623Z,98448.20
2023-09-24T10:01:38.602Z,98449.80
2023-09-24T10:04:08.492Z,98443.60
2023-09-24T10:06:39.073Z,98440.60
2023-09-24T10:09:41.636Z,98438.80
2023-09-24T10:12:08.894Z,98439.40
2023-09-24T10:14:38.678Z,98441.40
2023-09-24T10:17:17.549Z,98444.00
2023-09-24T10:19:54.343Z,98439.80
2023-09-24T10:22:34.109Z,98436.40
2023-09-24T10:25:23.164Z,98438.40
2023-09-24T10:28:09.447Z,98437.80
2023-09-24T10:31:06.095Z,98431.40
2023-09-24T10:33:56.090Z,98430.20
2023-09-24T10:36:30.412Z,98435.80
2023-09-24T10:39:12.636Z,98430.60
2023-09-24T10:42:11.203Z,98430.20
2023-09-24T10:44:38.652Z,98432.40
2023-09-24T10:47:27.708Z,98439.00
2023-09-24T10:50:08.177Z,98440.60
2023-09-24T10:52:50.337Z,98435.00
2023-09-24T10:55:18.328Z,98430.80
2023-09-24T10:57:51.415Z,98430.60
2023-09-24T11:00:19.166Z,98430.20
2023-09-24T11:02:46.559Z,98431.40
2023-09-24T11:05:13.706Z,98433.00
2023-09-24T11:07:40.407Z,98429.60
2023-09-24T11:10:07.567Z,98431.20
2023-09-24T11:12:34.244Z,98424.60
2023-09-24T11:15:17.451Z,98427.40
2023-09-24T11:17:46.394Z,98424.00
2023-09-24T11:20:14.115Z,98426.80
2023-09-24T11:22:40.915Z,98425.00
2023-09-24T11:25:12.634Z,98429.60
2023-09-24T11:27:53.684Z,98422.80
2023-09-24T11:30:23.305Z,98423.20
2023-09-24T11:32:52.353Z,98422.20
2023-09-24T11:35:26.790Z,98425.60
2023-09-24T11:37:57.982Z,98421.80
2023-09-24T11:40:28.800Z,98421.80
2023-09-24T11:42:59.621Z,98416.80
2023-09-24T11:45:54.730Z,98417.20
2023-09-24T11:48:27.249Z,98414.40
2023-09-24T11:50:54.478Z,98411.60
2023-09-24T11:53:24.735Z,98406.20
2023-09-24T11:55:53.541Z,98401.00
2023-09-24T11:58:21.871Z,98395.60
2023-09-24T12:00:49.353Z,98401.20
2023-09-24T12:03:16.415Z,98400.20
2023-09-24T12:05:43.318Z,98398.60
2023-09-24T12:08:10.100Z,98397.60
2023-09-24T12:10:40.070Z,98394.40
2023-09-24T12:13:07.897Z,98393.40
2023-09-24T12:15:35.147Z,98391.80
2023-09-24T12:18:05.663Z,98391.60
2023-09-24T12:20:36.643Z,98387.40
2023-09-24T12:23:08.694Z,98388.60
2023-09-24T12:25:38.964Z,98387.80
2023-09-24T12:28:08.224Z,98388.20
2023-09-24T12:30:36.191Z,98383.00
2023-09-24T12:33:03.542Z,98379.40
2023-09-24T12:35:30.360Z,98377.60
2023-09-24T12:37:57.124Z,98378.80
2023-09-24T12:40:24.743Z,98380.20
2023-09-24T12:42:52.310Z,98377.20
2023-09-24T12:45:19.409Z,98374.40
2023-09-24T12:47:46.495Z,98379.20
2023-09-24T12:50:14.853Z,98380.40
2023-09-24T12:52:43.655Z,98381.20
2023-09-24T12:55:11.849Z,98378.80
2023-09-24T12:57:40.452Z,98373.80
2023-09-24T13:00:12.797Z,98376.00
2023-09-24T13:02:42.636Z,98374.00
2023-09-24T13:05:11.302Z,98369.20
2023-09-24T13:07:40.237Z,98366.40
2023-09-24T13:10:08.174Z,98361.80
2023-09-24T13:12:35.048Z,98362.40
2023-09-24T13:15:02.279Z,98366.40
2023-09-24T13:17:30.143Z,98363.80
2023-09-24T13:19:57.038Z,98360.00
2023-09-24T13:22:23.760Z,98362.40
2023-09-24T13:24:50.600Z,98364.80
2023-09-24T13:27:17.299Z,98364.80
2023-09-24T13:29:44.452Z,98361.80
2023-09-24T13:32:12.942Z,98363.20
2023-09-24T13:34:39.839Z,98359.40
2023-09-24T13:37:06.557Z,98361.40
2023-09-24T13:39:33.279Z,98358.20
2023-09-24T13:42:00.357Z,98357.60
2023-09-24T13:44:27.272Z,98354.60
2023-09-24T13:46:54.417Z,98354.40
2023-09-24T13:49:21.397Z,98353.40
2023-09-24T13:51:50.810Z,98352.40
2023-09-24T13:54:17.558Z,98353.00
2023-09-24T13:56:44.528Z,98355.00
2023-09-24T13:59:11.373Z,98355.20
2023-09-24T14:01:37.978Z,98345.20
2023-09-24T14:04:05.044Z,98350.00
2023-09-24T14:06:31.810Z,98343.00
2023-09-24T14:09:17.332Z,98349.20
2023-09-24T14:12:02.984Z,98349.20
2023-09-24T14:14:29.910Z,98347.80
2023-09-24T14:16:56.693Z,98349.60
2023-09-24T14:19:23.799Z,98350.20
2023-09-24T14:21:50.855Z,98353.00
2023-09-24T14:24:17.953Z,98353.20
2023-09-24T14:26:45.206Z,98348.80
2023-09-24T14:29:11.965Z,98352.60
2023-09-24T14:31:38.593Z,98357.40
2023-09-24T14:34:05.277Z,98357.00
2023-09-24T14:36:31.991Z,98355.20
2023-09-24T14:39:03.492Z,98356.20
2023-09-24T14:41:31.622Z,98357.00
2023-09-24T14:43:59.984Z,98356.40
2023-09-24T14:46:27.812Z,98357.40
2023-09-24T14:48:54.724Z,98353.20
2023-09-24T14:51:21.751Z,98353.80
2023-09-24T14:53:49.300Z,98351.40
2023-09-24T14:56:21.781Z,98352.40
2023-09-24T14:58:48.558Z,98358.80
2023-09-24T15:01:15.422Z,98358.20
2023-09-24T15:03:42.564Z,98360.80
2023-09-24T15:06:09.662Z,98361.60
2023-09-24T15:08:36.727Z,98357.40
2023-09-24T15:11:05.076Z,98359.80
2023-09-24T15:13:32.412Z,98361.40
2023-09-24T15:15:59.190Z,98356.80
2023-09-24T15:18:26.067Z,98360.40
2023-09-24T15:20:53.183Z,98355.40
2023-09-24T15:23:21.963Z,98351.60
2023-09-24T15:25:48.799Z,98349.00
2023-09-24T15:28:15.931Z,98351.00
2023-09-24T15:30:44.032Z,98346.20
2023-09-24T15:33:11.279Z,98353.60
2023-09-24T15:35:38.479Z,98352.40
2023-09-24T15:38:10.711Z,98356.00
2023-09-24T15:40:38.582Z,98361.40
2023-09-24T15:43:06.953Z,98361.40
2023-09-24T15:45:34.162Z,98362.40
2023-09-24T15:48:04.599Z,98361.60
2023-09-24T15:50:33.249Z,98363.80
2023-09-24T15:53:00.379Z,98365.60
2023-09-24T15:55:27.335Z,98360.40
2023-09-24T15:57:54.074Z,98360.00
2023-09-24T16:00:21.309Z,98360.40
2023-09-24T16:02:48.034Z,98358.60
2023-09-24T16:05:15.033Z,98361.80
2023-09-24T16:07:41.780Z,98364.40
2023-09-24T16:10:09.259Z,98367.60
2023-09-24T16:12:36.243Z,98371.20
2023-09-24T16:15:03.129Z,98372.40
2023-09-24T16:17:30.741Z,98374.60
2023-09-24T16:19:57.913Z,98381.20
2023-09-24T16:22:25.196Z,98379.80
2023-09-24T16:24:53.190Z,98383.40
2023-09-24T16:27:20.482Z,98382.00
2023-09-24T16:29:51.489Z,98388.80
2023-09-24T16:32:19.495Z,98387.80
2023-09-24T16:34:49.525Z,98389.40
2023-09-24T16:37:16.428Z,98390.60
2023-09-24T16:39:43.200Z,98390.60
2023-09-24T16:42:10.119Z,98397.20
2023-09-24T16:44:36.911Z,98402.00
2023-09-24T16:47:06.794Z,98407.60
2023-09-24T16:49:34.207Z,98411.20
2023-09-24T16:52:01.218Z,98411.00
2023-09-24T16:54:28.390Z,98417.20
2023-09-24T16:56:56.311Z,98418.40
2023-09-24T16:59:23.653Z,98419.00
2023-09-24T17:01:52.672Z,98420.20
2023-09-24T17:04:20.235Z,98423.00
2023-09-24T17:06:47.461Z,98426.00
2023-09-24T17:09:14.334Z,98425.40
2023-09-24T17:11:41.237Z,98430.80
2023-09-24T17:14:07.894Z,98431.60
2023-09-24T17:16:34.608Z,98439.80
2023-09-24T17:19:01.475Z,98441.00
2023-09-24T17:21:29.413Z,98442.40
2023-09-24T17:23:56.490Z,98441.80
2023-09-24T17:26:24.506Z,98445.00
2023-09-24T17:28:54.210Z,98444.80
2023-09-24T17:31:21.847Z,98445.60
2023-09-24T17:33:49.575Z,98451.20
2023-09-24T17:36:19.652Z,98453.60
2023-09-24T17:38:47.834Z,98452.20
2023-09-24T17:41:16.450Z,98455.40
2023-09-24T17:43:43.978Z,98462.20
2023-09-24T17:46:16.992Z,98465.80
2023-09-24T17:48:46.554Z,98472.60
2023-09-24T17:51:13.636Z,98474.80
2023-09-24T17:53:41.304Z,98477.40
2023-09-24T17:56:09.479Z,98480.40
2023-09-24T17:58:36.497Z,98476.40
2023-09-24T18:01:15.844Z,98475.00
2023-09-24T18:03:45.915Z,98477.40
2023-09-24T18:06:15.961Z,98479.60
2023-09-24T18:08:43.959Z,98481.20
2023-09-24T18:11:10.813Z,98485.20
2023-09-24T18:13:38.915Z,98486.60
2023-09-24T18:16:06.533Z,98490.60
2023-09-24T18:18:35.666Z,98493.60
2023-09-24T18:21:03.953Z,98493.60
2023-09-24T18:23:33.746Z,98494.40
2023-09-24T18:26:01.914Z,98494.00
2023-09-24T18:28:28.683Z,98492.80
2023-09-24T18:30:57.143Z,98499.40
2023-09-24T18:33:26.144Z,98499.60
2023-09-24T18:35:57.191Z,98502.80
2023-09-24T18:38:24.002Z,98503.20
2023-09-24T18:40:56.696Z,98502.20
2023-09-24T18:43:24.552Z,98508.00
2023-09-24T18:45:54.201Z,98501.60
2023-09-24T18:48:21.989Z,98508.40
2023-09-24T18:50:49.997Z,98514.40
2023-09-24T18:53:17.137Z,98507.40
2023-09-24T18:55:44.726Z,98510.00
2023-09-24T18:58:11.373Z,98507.40
2023-09-24T19:00:38.058Z,98511.20
2023-09-24T19:03:09.122Z,98510.40
2023-09-24T19:05:35.813Z,98511.60
2023-09-24T19:08:02.432Z,98511.40
2023-09-24T19:10:29.036Z,98510.40
2023-09-24T19:12:55.733Z,98508.80
2023-09-24T19:15:22.420Z,98512.40
2023-09-24T19:17:49.148Z,98511.00
2023-09-24T19:20:15.975Z,98513.60
2023-09-24T19:22:42.690Z,98513.20
2023-09-24T19:25:09.785Z,98515.60
2023-09-24T19:27:37.164Z,98514.00
2023-09-24T19:30:05.464Z,98514.00
2023-09-24T19:32:32.268Z,98515.00
2023-09-24T19:34:58.868Z,98511.60
2023-09-24T19:37:25.752Z,98513.00
2023-09-24T19:39:52.648Z,98509.80
2023-09-24T19:42:19.259Z,98507.80
2023-09-24T19:44:46.054Z,98503.00
2023-09-24T19:47:16.286Z,98502.80
2023-09-24T19:49:43.861Z,98501.60
2023-09-24T19:52:10.986Z,98501.20
2023-09-24T19:54:37.985Z,98502.80
2023-09-24T19:57:04.784Z,98501.40
2023-09-24T19:59:31.928Z,98501.20
2023-09-24T20:01:58.765Z,98499.80
2023-09-24T20:04:25.522Z,98500.20
2023-09-24T20:06:52.354Z,98500.20
2023-09-24T20:09:19.387Z,98500.60
2023-09-24T20:11:46.828Z,98507.20
2023-09-24T20:14:15.517Z,98509.00
2023-09-24T20:16:42.811Z,98507.80
2023-09-24T20:19:10.600Z,98509.60
2023-09-24T20:21:37.858Z,98509.80
2023-09-24T20:24:10.400Z,98513.00
2023-09-24T20:26:39.947Z,98511.20
2023-09-24T20:29:08.759Z,98512.40
2023-09-24T20:31:39.490Z,98513.60
2023-09-24T20:34:06.475Z,98509.80
2023-09-24T20:36:34.314Z,98510.40
2023-09-24T20:39:07.224Z,98511.80
2023-09-24T20:41:36.020Z,98507.60
2023-09-24T20:44:03.228Z,98508.00
2023-09-24T20:46:34.954Z,98497.60
2023-09-24T20:49:02.251Z,98497.00
2023-09-24T20:51:28.920Z,98492.80
2023-09-24T20:53:55.792Z,98492.20
2023-09-24T20:56:22.657Z,98495.20
2023-09-24T20:58:49.489Z,98498.60
2023-09-24T21:01:19.354Z,98501.20
2023-09-24T21:03:47.189Z,98497.20
2023-09-24T21:06:14.626Z,98494.00
2023-09-24T21:08:41.384Z,98492.80
2023-09-24T21:11:08.223Z,98493.20
2023-09-24T21:13:35.021Z,98494.40
2023-09-24T21:16:05.043Z,98490.40
2023-09-24T21:18:31.901Z,98490.00
2023-09-24T21:20:58.626Z,98492.40
2023-09-24T21:23:25.584Z,98487.40
2023-09-24T21:26:08.695Z,98487.40
2023-09-24T21:28:35.356Z,98488.60
2023-09-24T21:31:06.850Z,98485.60
2023-09-24T21:33:34.268Z,98488.40
2023-09-24T21:36:01.331Z,98489.40
2023-09-24T21:38:28.008Z,98484.20
2023-09-24T21:40:54.856Z,98485.40
2023-09-24T21:43:21.952Z,98486.40
2023-09-24T21:45:48.587Z,98487.80
2023-09-24T21:48:15.412Z,98486.40
2023-09-24T21:50:42.274Z,98486.60
2023-09-24T21:53:08.922Z,98488.60
2023-09-24T21:55:35.612Z,98482.80
2023-09-24T21:58:02.217Z,98479.00
2023-09-24T22:00:32.058Z,98481.60
2023-09-24T22:03:00.404Z,98482.80
2023-09-24T22:05:27.599Z,98474.40
2023-09-24T22:07:54.381Z,98477.40
2023-09-24T22:10:21.031Z,98475.20
2023-09-24T22:12:47.887Z,98475.40
2023-09-24T22:15:14.705Z,98473.00
2023-09-24T22:17:41.520Z,98473.00
2023-09-24T22:20:08.756Z,98476.20
2023-09-24T22:22:35.313Z,98477.80
2023-09-24T22:25:01.901Z,98478.20
2023-09-24T22:27:28.641Z,98484.80
2023-09-24T22:29:55.347Z,98485.00
2023-09-24T22:32:21.965Z,98489.20
2023-09-24T22:34:48.611Z,98487.80
2023-09-24T22:37:15.371Z,98489.80
2023-09-24T22:39:42.085Z,98486.80
2023-09-24T22:42:08.981Z,98489.60
2023-09-24T22:44:35.677Z,98491.80
2023-09-24T22:47:02.303Z,98491.60
2023-09-24T22:49:28.976Z,98489.20
2023-09-24T22:51:55.608Z,98483.00
2023-09-24T22:54:22.319Z,98482.40
2023-09-24T22:56:50.399Z,98481.40
2023-09-24T22:59:17.064Z,98474.40
2023-09-24T23:01:43.720Z,98470.60
2023-09-24T23:04:12.360Z,98465.60
2023-09-24T23:06:39.873Z,98461.00
2023-09-24T23:09:07.819Z,98465.80
2023-09-24T23:11:36.856Z,98464.80
2023-09-24T23:14:04.628Z,98458.80
2023-09-24T23:16:31.412Z,98451.40
2023-09-24T23:18:58.676Z,98457.40
2023-09-24T23:21:25.634Z,98453.80
2023-09-24T23:23:53.946Z,98450.60
2023-09-24T23:26:20.527Z,98442.40
2023-09-24T23:28:48.874Z,98441.60
2023-09-24T23:31:16.076Z,98433.80
2023-09-24T23:33:44.694Z,98444.00
2023-09-24T23:36:11.395Z,98447.20
2023-09-24T23:38:38.000Z,98446.60
2023-09-24T23:41:04.621Z,98445.20
2023-09-24T23:43:31.447Z,98440.60
2023-09-24T23:46:02.170Z,98450.20
2023-09-24T23:48:28.958Z,98453.40
2023-09-24T23:50:55.711Z,98448.60
2023-09-24T23:53:22.313Z,98445.00
2023-09-24T23:55:52.120Z,98450.00
2023-09-24T23:58:19.715Z,98450.20
